createdAt,value
2023-05-23T00:04:38.141Z,100551.39
2023-05-23T00:09:31.427Z,100548.04
2023-05-23T00:14:25.026Z,100546.64
2023-05-23T00:19:18.014Z,100548.51
2023-05-23T00:24:11.218Z,100544.09
2023-05-23T00:29:05.340Z,100537.23
2023-05-23T00:33:58.280Z,100534.27
2023-05-23T00:38:51.150Z,100538.23
2023-05-23T00:43:44.813Z,100537.48
2023-05-23T00:48:38.800Z,100538.98
2023-05-23T00:53:32.032Z,100532.88
2023-05-23T00:58:26.278Z,100535.01
2023-05-23T01:03:20.200Z,100530.39
2023-05-23T01:08:16.066Z,100539.90
2023-05-23T01:13:49.682Z,100538.45
2023-05-23T01:18:50.639Z,100542.16
2023-05-23T01:24:09.919Z,100545.11
2023-05-23T01:29:10.703Z,100542.63
2023-05-23T01:34:03.952Z,100543.05
2023-05-23T01:38:56.890Z,100542.30
2023-05-23T01:43:49.902Z,100540.89
2023-05-23T01:48:43.884Z,100534.62
2023-05-23T01:53:37.617Z,100532.31
2023-05-23T01:58:31.174Z,100530.03
2023-05-23T02:03:24.290Z,100524.91
2023-05-23T02:08:17.463Z,100526.16
2023-05-23T02:13:10.434Z,100520.41
2023-05-23T02:18:03.403Z,100516.10
2023-05-23T02:22:57.096Z,100511.17
2023-05-23T02:27:49.961Z,100509.02
2023-05-23T02:32:42.854Z,100506.73
2023-05-23T02:37:35.736Z,100501.42
2023-05-23T02:42:30.879Z,100495.38
2023-05-23T02:47:23.853Z,100493.85
2023-05-23T02:52:17.163Z,100487.58
2023-05-23T02:57:10.564Z,100489.66
2023-05-23T03:02:04.963Z,100491.88
2023-05-23T03:06:59.901Z,100490.91
2023-05-23T03:11:52.922Z,100489.06
2023-05-23T03:16:46.563Z,100485.87
2023-05-23T03:21:40.260Z,100487.13
2023-05-23T03:26:33.770Z,100489.27
2023-05-23T03:31:26.918Z,100492.84
2023-05-23T03:36:19.986Z,100488.66
2023-05-23T03:41:13.102Z,100482.46
2023-05-23T03:46:06.376Z,100485.55
2023-05-23T03:50:59.511Z,100484.31
2023-05-23T03:55:54.309Z,100481.86
2023-05-23T04:00:47.895Z,100478.83
2023-05-23T04:05:41.966Z,100475.60
2023-05-23T04:10:36.432Z,100470.68
2023-05-23T04:15:30.020Z,100468.58
2023-05-23T04:20:26.170Z,100465.63
2023-05-23T04:25:20.833Z,100465.91
2023-05-23T04:30:25.063Z,100464.80
2023-05-23T04:35:18.270Z,100465.42
2023-05-23T04:40:13.628Z,100464.33
2023-05-23T04:45:14.021Z,100460.65
2023-05-23T04:50:25.062Z,100459.77
2023-05-23T04:55:18.211Z,100460.82
2023-05-23T05:00:12.976Z,100453.53
2023-05-23T05:05:07.490Z,100454.23
2023-05-23T05:10:01.345Z,100451.61
2023-05-23T05:14:55.441Z,100448.50
2023-05-23T05:19:49.139Z,100441.88
2023-05-23T05:24:43.684Z,100442.51
2023-05-23T05:29:37.644Z,100438.26
2023-05-23T05:34:31.069Z,100436.96
2023-05-23T05:39:27.004Z,100432.33
2023-05-23T05:44:21.219Z,100436.40
2023-05-23T05:49:14.399Z,100435.05
2023-05-23T05:54:08.429Z,100428.56
2023-05-23T05:59:01.558Z,100430.27
2023-05-23T06:03:55.257Z,100426.88
2023-05-23T06:08:48.905Z,100420.41
2023-05-23T06:13:42.757Z,100414.93
2023-05-23T06:18:35.858Z,100410.95
2023-05-23T06:23:29.415Z,100406.58
2023-05-23T06:28:22.484Z,100394.98
2023-05-23T06:33:16.430Z,100395.04
2023-05-23T06:38:09.625Z,100393.77
2023-05-23T06:43:02.464Z,100388.35
2023-05-23T06:48:06.116Z,100385.42
2023-05-23T06:52:59.757Z,100381.65
2023-05-23T06:57:52.690Z,100374.28
2023-05-23T07:02:48.838Z,100368.02
2023-05-23T07:07:44.862Z,100363.33
2023-05-23T07:12:37.822Z,100353.27
2023-05-23T07:17:31.596Z,100349.19
2023-05-23T07:22:24.556Z,100345.92
2023-05-23T07:27:18.589Z,100338.00
2023-05-23T07:32:12.071Z,100336.73
2023-05-23T07:37:05.237Z,100332.85
2023-05-23T07:42:04.511Z,100337.40
2023-05-23T07:46:58.049Z,100333.65
2023-05-23T07:51:51.633Z,100333.52
2023-05-23T07:56:45.344Z,100323.52
2023-05-23T08:01:38.912Z,100318.49
2023-05-23T08:06:33.806Z,100313.63
2023-05-23T08:11:30.574Z,100312.46
2023-05-23T08:16:23.854Z,100304.98
2023-05-23T08:21:17.980Z,100299.25
2023-05-23T08:26:11.343Z,100296.79
2023-05-23T08:31:04.922Z,100304.21
2023-05-23T08:35:57.937Z,100298.61
2023-05-23T08:40:52.702Z,100293.09
2023-05-23T08:45:47.059Z,100288.55
2023-05-23T08:50:43.383Z,100283.23
2023-05-23T08:55:38.790Z,100289.61
2023-05-23T09:00:33.124Z,100285.38
2023-05-23T09:05:27.839Z,100278.55
2023-05-23T09:10:22.456Z,100275.34
2023-05-23T09:15:17.527Z,100276.28
2023-05-23T09:20:16.038Z,100270.81
2023-05-23T09:25:14.810Z,100260.98
2023-05-23T09:30:10.271Z,100268.30
2023-05-23T09:35:05.504Z,100266.00
2023-05-23T09:40:00.816Z,100272.98
2023-05-23T09:44:55.187Z,100268.30
2023-05-23T09:49:48.344Z,100269.98
2023-05-23T09:54:42.005Z,100258.77
2023-05-23T09:59:36.444Z,100253.83
2023-05-23T10:04:32.950Z,100256.79
2023-05-23T10:09:28.335Z,100252.90
2023-05-23T10:14:21.319Z,100246.96
2023-05-23T10:19:43.658Z,100247.92
2023-05-23T10:24:37.741Z,100245.65
2023-05-23T10:29:31.216Z,100245.67
2023-05-23T10:34:52.443Z,100245.88
2023-05-23T10:39:51.346Z,100246.14
2023-05-23T10:44:44.460Z,100240.16
2023-05-23T10:49:45.176Z,100237.31
2023-05-23T10:54:44.139Z,100241.32
2023-05-23T10:59:39.721Z,100226.63
2023-05-23T11:04:32.578Z,100231.44
2023-05-23T11:09:25.598Z,100231.64
2023-05-23T11:14:18.503Z,100228.91
2023-05-23T11:19:20.474Z,100222.06
2023-05-23T11:24:13.922Z,100217.92
2023-05-23T11:29:10.884Z,100218.52
2023-05-23T11:34:03.909Z,100213.09
2023-05-23T11:38:57.949Z,100204.98
2023-05-23T11:43:52.638Z,100207.25
2023-05-23T11:48:51.019Z,100204.23
2023-05-23T11:53:44.906Z,100194.59
2023-05-23T11:58:40.266Z,100194.00
2023-05-23T12:03:34.120Z,100189.79
2023-05-23T12:08:27.265Z,100189.30
2023-05-23T12:13:21.448Z,100186.98
2023-05-23T12:18:14.674Z,100188.50
2023-05-23T12:23:07.678Z,100176.73
2023-05-23T12:28:01.628Z,100180.67
2023-05-23T12:32:55.225Z,100174.42
2023-05-23T12:37:48.685Z,100165.61
2023-05-23T12:42:54.484Z,100165.02
2023-05-23T12:47:56.237Z,100159.15
2023-05-23T12:52:49.805Z,100166.55
2023-05-23T13:03:56.072Z,100154.65
2023-05-23T13:09:22.515Z,100149.88
2023-05-23T13:14:24.718Z,100150.85
2023-05-23T13:19:21.033Z,100156.02
2023-05-23T13:24:19.361Z,100146.10
2023-05-23T13:29:12.566Z,100142.88
2023-05-23T13:34:07.307Z,100134.86
2023-05-23T13:39:18.134Z,100130.11
2023-05-23T13:44:20.668Z,100130.59
2023-05-23T13:49:24.740Z,100132.59
2023-05-23T13:54:34.545Z,100124.74
2023-05-23T13:59:56.638Z,100123.77
2023-05-23T14:06:01.381Z,100123.75
2023-05-23T15:02:22.666Z,100101.48
2023-05-23T15:09:51.319Z,100095.88
2023-05-23T15:35:04.328Z,100086.00
2023-05-23T15:40:41.596Z,100086.07
2023-05-23T15:53:14.517Z,100077.61
2023-05-23T16:20:04.231Z,100060.80
2023-05-23T16:32:24.097Z,100055.90
2023-05-23T17:07:00.382Z,100058.38
2023-05-23T18:14:10.950Z,100088.59
2023-05-23T18:57:05.044Z,100115.27
2023-05-23T19:01:58.693Z,100118.35
2023-05-23T19:06:50.835Z,100122.40
2023-05-23T19:11:42.331Z,100129.54
2023-05-23T19:16:35.659Z,100128.38
2023-05-23T19:21:27.743Z,100133.11
2023-05-23T19:26:20.980Z,100135.55
2023-05-23T19:31:13.559Z,100140.27
2023-05-23T19:36:09.266Z,100144.29
2023-05-23T19:41:14.400Z,100148.10
2023-05-23T19:46:08.377Z,100152.06
2023-05-23T19:51:00.374Z,100154.02
2023-05-23T20:17:10.521Z,100148.50
2023-05-23T20:23:03.048Z,100150.02
2023-05-23T20:35:29.617Z,100165.30
2023-05-23T20:40:43.513Z,100168.30
2023-05-23T20:45:37.673Z,100168.13
2023-05-23T20:50:32.124Z,100170.30
2023-05-23T20:55:35.837Z,100170.51
2023-05-23T21:00:29.305Z,100168.34
2023-05-23T21:05:20.849Z,100168.42
2023-05-23T21:10:12.475Z,100167.05
2023-05-23T21:15:09.192Z,100166.20
2023-05-23T21:20:00.683Z,100163.45
2023-05-23T21:24:52.296Z,100159.73
2023-05-23T21:29:46.206Z,100161.96
2023-05-23T21:34:37.721Z,100163.21
2023-05-23T21:39:47.004Z,100163.13
2023-05-23T21:44:41.928Z,100161.08
2023-05-23T21:49:34.786Z,100164.81
2023-05-23T21:54:30.590Z,100170.46
2023-05-23T21:59:24.591Z,100172.82
2023-05-23T22:04:18.539Z,100173.34
2023-05-23T22:09:13.664Z,100172.65
2023-05-23T22:14:09.286Z,100173.77
2023-05-23T22:19:18.859Z,100170.86
2023-05-23T22:24:13.873Z,100169.82
2023-05-23T22:29:19.883Z,100170.35
2023-05-23T22:34:17.884Z,100164.27
2023-05-23T22:39:20.509Z,100169.35
2023-05-23T22:44:12.859Z,100168.83
2023-05-23T22:49:31.126Z,100170.08
2023-05-23T22:55:03.046Z,100169.73
2023-05-23T23:00:15.380Z,100169.27
2023-05-23T23:05:12.024Z,100169.32
2023-05-23T23:10:11.517Z,100171.11
2023-05-23T23:21:08.252Z,100160.54
2023-05-23T23:25:59.623Z,100158.65
2023-05-23T23:30:51.979Z,100152.40
2023-05-23T23:35:45.857Z,100153.85
2023-05-23T23:40:37.406Z,100149.52
2023-05-23T23:45:28.970Z,100146.90
2023-05-23T23:50:21.885Z,100144.00
2023-05-23T23:55:15.254Z,100143.85
